createdAt,value
2024-02-24T00:01:39.335Z,3.22
2024-02-24T00:05:02.291Z,3.19
2024-02-24T00:08:24.339Z,3.18
2024-02-24T00:11:46.181Z,3.07
2024-02-24T00:15:09.017Z,3.10
2024-02-24T00:18:30.734Z,3.07
2024-02-24T00:21:53.810Z,3.02
2024-02-24T00:25:15.359Z,2.96
2024-02-24T00:28:37.318Z,2.95
2024-02-24T00:31:58.960Z,2.98
2024-02-24T00:35:20.922Z,2.95
2024-02-24T00:38:44.148Z,2.92
2024-02-24T00:42:06.625Z,2.92
2024-02-24T00:45:28.972Z,2.88
2024-02-24T00:48:51.075Z,2.88
2024-02-24T00:52:12.882Z,2.83
2024-02-24T00:55:36.279Z,2.88
2024-02-24T00:58:58.504Z,2.88
2024-02-24T01:02:20.505Z,2.84
2024-02-24T01:05:43.528Z,2.83
2024-02-24T01:09:05.712Z,2.81
2024-02-24T01:12:29.034Z,2.80
2024-02-24T01:15:50.671Z,2.78
2024-02-24T01:19:12.809Z,2.78
2024-02-24T01:22:34.937Z,2.80
2024-02-24T01:25:56.626Z,2.77
2024-02-24T01:29:19.908Z,2.74
2024-02-24T01:32:42.351Z,2.72
2024-02-24T01:36:04.358Z,2.70
2024-02-24T01:39:26.054Z,2.67
2024-02-24T01:42:47.834Z,2.64
2024-02-24T01:46:13.382Z,2.56
2024-02-24T01:49:35.065Z,2.59
2024-02-24T01:52:56.913Z,2.46
2024-02-24T01:56:20.616Z,2.50
2024-02-24T01:59:42.817Z,2.47
2024-02-24T02:03:06.634Z,2.43
2024-02-24T02:06:30.186Z,2.45
2024-02-24T02:09:56.504Z,2.24
2024-02-24T02:13:18.339Z,2.39
2024-02-24T02:16:40.408Z,2.36
2024-02-24T02:20:05.908Z,2.35
2024-02-24T02:23:29.452Z,2.33
2024-02-24T02:26:51.185Z,2.24
2024-02-24T02:30:13.939Z,2.31
2024-02-24T02:33:35.935Z,2.26
2024-02-24T02:36:57.538Z,2.26
2024-02-24T02:40:20.748Z,2.22
2024-02-24T02:43:42.351Z,2.20
2024-02-24T02:47:11.321Z,2.12
2024-02-24T02:50:39.445Z,2.19
2024-02-24T02:54:01.299Z,2.14
2024-02-24T02:57:25.646Z,2.13
2024-02-24T03:00:48.535Z,2.09
2024-02-24T03:04:10.278Z,2.09
2024-02-24T03:07:32.252Z,2.05
2024-02-24T03:10:54.019Z,2.03
2024-02-24T03:14:17.386Z,1.99
2024-02-24T03:17:38.934Z,1.98
2024-02-24T03:21:00.723Z,1.96
2024-02-24T03:24:22.660Z,1.95
2024-02-24T03:27:44.471Z,1.89
2024-02-24T03:31:07.846Z,1.90
2024-02-24T03:34:29.575Z,1.85
2024-02-24T03:37:51.476Z,1.86
2024-02-24T03:41:14.103Z,1.85
2024-02-24T03:44:36.131Z,1.84
2024-02-24T03:47:59.429Z,1.84
2024-02-24T03:51:21.847Z,1.79
2024-02-24T03:54:43.716Z,1.82
2024-02-24T03:58:05.884Z,1.82
2024-02-24T04:01:28.864Z,1.81
2024-02-24T04:04:53.407Z,1.82
2024-02-24T04:08:15.539Z,1.81
2024-02-24T04:11:37.930Z,1.72
2024-02-24T04:14:59.741Z,1.82
2024-02-24T04:18:21.804Z,1.80
2024-02-24T04:21:45.075Z,1.83
2024-02-24T04:25:07.731Z,1.80
2024-02-24T04:28:29.589Z,1.74
2024-02-24T04:31:51.339Z,1.78
2024-02-24T04:35:13.536Z,1.77
2024-02-24T04:38:36.959Z,1.71
2024-02-24T04:41:58.945Z,1.78
2024-02-24T04:45:20.792Z,1.78
2024-02-24T04:48:43.819Z,1.78
2024-02-24T04:52:06.818Z,1.78
2024-02-24T04:55:30.107Z,1.76
2024-02-24T04:58:51.623Z,1.75
2024-02-24T05:02:13.672Z,1.72
2024-02-24T05:05:35.876Z,1.75
2024-02-24T05:08:57.820Z,1.69
2024-02-24T05:12:21.108Z,1.68
2024-02-24T05:15:42.737Z,1.58
2024-02-24T05:19:04.778Z,1.63
2024-02-24T05:22:26.532Z,1.65
2024-02-24T05:25:49.762Z,1.63
2024-02-24T05:29:13.414Z,1.60
2024-02-24T05:32:35.394Z,1.61
2024-02-24T05:35:57.076Z,1.53
2024-02-24T05:39:18.827Z,1.57
2024-02-24T05:42:40.782Z,1.58
2024-02-24T05:46:07.907Z,1.46
2024-02-24T05:49:29.422Z,1.55
2024-02-24T05:52:51.271Z,1.55
2024-02-24T05:56:13.119Z,1.54
2024-02-24T05:59:34.743Z,1.46
2024-02-24T06:02:57.954Z,1.52
2024-02-24T06:06:20.220Z,1.54
2024-02-24T06:09:42.189Z,1.56
2024-02-24T06:13:06.026Z,1.57
2024-02-24T06:16:27.915Z,1.53
2024-02-24T06:19:51.204Z,1.52
2024-02-24T06:23:12.784Z,1.59
2024-02-24T06:26:34.729Z,1.63
2024-02-24T06:29:56.633Z,1.65
2024-02-24T06:33:18.503Z,1.66
2024-02-24T06:36:41.778Z,1.71
2024-02-24T06:40:03.697Z,1.74
2024-02-24T06:43:27.390Z,1.75
2024-02-24T06:46:50.672Z,1.81
2024-02-24T06:50:13.956Z,1.84
2024-02-24T06:53:39.030Z,1.88
2024-02-24T06:57:01.745Z,1.82
2024-02-24T07:00:24.666Z,1.90
2024-02-24T07:03:46.799Z,1.94
2024-02-24T07:07:09.734Z,1.95
2024-02-24T07:10:32.785Z,1.98
2024-02-24T07:13:54.289Z,1.83
2024-02-24T07:17:15.920Z,2.08
2024-02-24T07:20:37.706Z,2.10
2024-02-24T07:23:59.235Z,2.06
2024-02-24T07:27:22.314Z,2.16
2024-02-24T07:30:44.238Z,2.16
2024-02-24T07:34:06.760Z,2.22
2024-02-24T07:37:28.497Z,2.26
2024-02-24T07:40:50.002Z,2.29
2024-02-24T07:44:13.355Z,2.31
2024-02-24T07:47:35.257Z,2.15
2024-02-24T07:50:57.387Z,2.32
2024-02-24T07:54:19.278Z,2.39
2024-02-24T07:57:41.397Z,2.42
2024-02-24T08:01:04.663Z,2.46
2024-02-24T08:04:26.949Z,2.43
2024-02-24T08:07:48.829Z,2.58
2024-02-24T08:11:10.673Z,2.57
2024-02-24T08:14:32.764Z,2.54
2024-02-24T08:17:55.954Z,2.56
2024-02-24T08:21:17.873Z,2.58
2024-02-24T08:24:39.570Z,2.59
2024-02-24T08:28:02.094Z,2.50
2024-02-24T08:31:24.302Z,2.57
2024-02-24T08:34:47.661Z,2.55
2024-02-24T08:38:09.676Z,2.58
2024-02-24T08:41:33.446Z,2.56
2024-02-24T08:44:55.457Z,2.57
2024-02-24T08:48:17.969Z,2.58
2024-02-24T08:51:41.350Z,2.61
2024-02-24T08:55:02.989Z,2.61
2024-02-24T08:58:24.586Z,2.62
2024-02-24T09:01:46.788Z,2.67
2024-02-24T09:05:09.361Z,2.73
2024-02-24T09:08:32.965Z,2.75
2024-02-24T09:11:54.884Z,2.79
2024-02-24T09:15:16.759Z,2.79
2024-02-24T09:18:38.699Z,2.81
2024-02-24T09:22:00.984Z,2.80
2024-02-24T09:25:23.850Z,2.77
2024-02-24T09:28:45.391Z,2.74
2024-02-24T09:32:07.754Z,2.73
2024-02-24T09:35:29.427Z,2.74
2024-02-24T09:38:51.323Z,2.78
2024-02-24T09:42:14.440Z,2.65
2024-02-24T09:45:37.204Z,2.79
2024-02-24T09:48:59.771Z,2.76
2024-02-24T09:52:21.691Z,2.74
2024-02-24T09:55:45.030Z,2.77
2024-02-24T09:59:09.315Z,2.80
2024-02-24T10:02:30.954Z,2.80
2024-02-24T10:05:53.160Z,2.79
2024-02-24T10:09:15.301Z,2.80
2024-02-24T10:12:37.219Z,2.78
2024-02-24T10:16:05.165Z,2.78
2024-02-24T10:19:32.124Z,2.82
2024-02-24T10:22:54.288Z,2.77
2024-02-24T10:26:17.131Z,2.79
2024-02-24T10:29:38.953Z,2.83
2024-02-24T10:33:03.375Z,2.85
2024-02-24T10:36:28.183Z,2.86
2024-02-24T10:39:52.283Z,2.84
2024-02-24T10:43:13.915Z,2.84
2024-02-24T10:46:36.896Z,2.81
2024-02-24T10:50:00.323Z,2.87
2024-02-24T10:53:28.612Z,2.88
2024-02-24T10:56:57.404Z,2.89
2024-02-24T11:00:32.304Z,2.90
2024-02-24T11:03:56.596Z,2.91
2024-02-24T11:07:21.757Z,2.93
2024-02-24T11:10:45.600Z,2.90
2024-02-24T11:17:48.969Z,2.90
2024-02-24T11:21:10.694Z,2.84
2024-02-24T11:24:36.053Z,2.94
2024-02-24T11:27:58.379Z,2.94
2024-02-24T11:31:29.727Z,2.93
2024-02-24T11:34:52.319Z,2.94
2024-02-24T11:38:15.720Z,2.94
2024-02-24T11:41:41.483Z,2.91
2024-02-24T11:45:05.616Z,2.95
2024-02-24T11:48:27.987Z,2.95
2024-02-24T11:51:50.219Z,2.97
2024-02-24T11:55:12.433Z,2.98
2024-02-24T11:58:36.264Z,2.99
2024-02-24T12:01:58.319Z,2.97
2024-02-24T12:05:22.040Z,3.05
2024-02-24T12:08:44.533Z,3.05
2024-02-24T12:12:07.589Z,3.06
2024-02-24T12:15:31.327Z,3.05
2024-02-24T12:18:53.915Z,3.11
2024-02-24T12:22:16.049Z,3.14
2024-02-24T12:25:38.879Z,3.18
2024-02-24T12:29:01.236Z,3.21
2024-02-24T12:32:25.297Z,3.27
2024-02-24T12:35:49.867Z,3.32
2024-02-24T12:39:12.299Z,3.38
2024-02-24T12:42:40.407Z,3.41
2024-02-24T12:46:02.370Z,3.47
2024-02-24T12:49:25.771Z,3.48
2024-02-24T12:52:48.351Z,3.52
2024-02-24T12:56:10.280Z,3.54
2024-02-24T12:59:31.941Z,3.54
2024-02-24T13:02:57.402Z,3.65
2024-02-24T13:06:21.390Z,3.65
2024-02-24T13:09:43.093Z,3.72
2024-02-24T13:13:06.028Z,3.75
2024-02-24T13:16:28.040Z,3.76
2024-02-24T13:19:52.651Z,3.77
2024-02-24T13:23:18.421Z,3.81
2024-02-24T13:26:41.821Z,3.78
2024-02-24T13:30:03.915Z,3.87
2024-02-24T13:33:26.187Z,3.81
2024-02-24T13:36:48.472Z,3.92
2024-02-24T13:40:12.755Z,3.93
2024-02-24T13:43:34.995Z,3.96
2024-02-24T13:46:57.358Z,3.96
2024-02-24T13:50:21.337Z,3.99
2024-02-24T13:53:43.522Z,4.02
2024-02-24T13:57:07.440Z,4.02
2024-02-24T14:00:29.442Z,4.07
2024-02-24T14:03:51.446Z,4.09
2024-02-24T14:07:15.053Z,4.06
2024-02-24T14:10:37.395Z,4.15
2024-02-24T14:14:00.793Z,4.20
2024-02-24T14:17:24.399Z,4.19
2024-02-24T14:20:46.453Z,4.23
2024-02-24T14:24:08.870Z,4.24
2024-02-24T14:27:31.144Z,4.23
2024-02-24T14:30:56.034Z,4.27
2024-02-24T14:34:18.924Z,4.34
2024-02-24T14:37:41.294Z,4.35
2024-02-24T14:41:03.618Z,4.37
2024-02-24T14:44:25.903Z,4.39
2024-02-24T14:47:49.879Z,4.42
2024-02-24T14:51:12.394Z,4.44
2024-02-24T14:54:34.922Z,4.46
2024-02-24T14:57:57.180Z,4.50
2024-02-24T15:01:19.338Z,4.51
2024-02-24T15:04:43.123Z,4.53
2024-02-24T15:08:05.620Z,4.55
2024-02-24T15:11:28.494Z,4.58
2024-02-24T15:14:50.672Z,4.59
2024-02-24T15:18:12.553Z,4.62
2024-02-24T15:21:35.950Z,4.64
2024-02-24T15:24:57.535Z,4.63
2024-02-24T15:28:19.954Z,4.67
2024-02-24T15:31:41.893Z,4.69
2024-02-24T15:35:04.111Z,4.63
2024-02-24T15:38:27.921Z,4.73
2024-02-24T15:41:50.016Z,4.73
2024-02-24T15:45:12.014Z,4.74
2024-02-24T15:48:35.547Z,4.74
2024-02-24T15:51:59.423Z,4.72
2024-02-24T15:55:23.102Z,4.78
2024-02-24T15:58:46.071Z,4.81
2024-02-24T16:02:08.130Z,4.79
2024-02-24T16:05:30.382Z,4.83
2024-02-24T16:08:53.846Z,4.85
2024-02-24T16:12:17.347Z,4.84
2024-02-24T16:15:39.374Z,4.87
2024-02-24T16:19:03.174Z,4.87
2024-02-24T16:22:26.146Z,4.89
2024-02-24T16:25:47.910Z,4.92
2024-02-24T16:29:11.049Z,4.94
2024-02-24T16:32:33.474Z,4.94
2024-02-24T16:35:55.609Z,4.96
2024-02-24T16:39:17.444Z,4.95
2024-02-24T16:42:39.483Z,4.99
2024-02-24T16:46:03.667Z,5.00
2024-02-24T16:49:25.698Z,5.02
2024-02-24T16:52:47.381Z,5.02
2024-02-24T16:56:09.360Z,5.01
2024-02-24T16:59:31.438Z,5.03
2024-02-24T17:02:54.865Z,5.09
2024-02-24T17:06:16.737Z,5.08
2024-02-24T17:09:38.978Z,5.10
2024-02-24T17:13:01.178Z,5.13
2024-02-24T17:16:23.225Z,5.13
2024-02-24T17:19:46.906Z,5.16
2024-02-24T17:23:13.524Z,5.18
2024-02-24T17:26:35.680Z,5.18
2024-02-24T17:29:57.533Z,5.22
2024-02-24T17:33:19.213Z,5.22
2024-02-24T17:36:45.850Z,5.22
2024-02-24T17:40:08.670Z,5.24
2024-02-24T17:43:30.660Z,5.25
2024-02-24T17:46:52.448Z,5.24
2024-02-24T17:50:15.248Z,5.25
2024-02-24T17:53:38.444Z,5.08
2024-02-24T17:57:00.376Z,5.25
2024-02-24T18:00:24.037Z,5.27
2024-02-24T18:03:45.891Z,5.32
2024-02-24T18:07:07.550Z,5.31
2024-02-24T18:10:31.199Z,5.35
2024-02-24T18:13:53.020Z,5.35
2024-02-24T18:17:16.051Z,5.35
2024-02-24T18:20:39.497Z,5.33
2024-02-24T18:24:01.565Z,5.42
2024-02-24T18:27:24.839Z,5.45
2024-02-24T18:30:46.568Z,5.46
2024-02-24T18:34:11.064Z,5.51
2024-02-24T18:37:33.174Z,5.55
2024-02-24T18:40:55.404Z,5.57
2024-02-24T18:44:19.273Z,5.60
2024-02-24T18:47:41.360Z,5.66
2024-02-24T18:51:04.407Z,5.67
2024-02-24T18:54:29.442Z,5.69
2024-02-24T18:57:51.518Z,5.70
2024-02-24T19:01:14.877Z,5.73
2024-02-24T19:04:37.480Z,5.72
2024-02-24T19:07:59.051Z,5.75
2024-02-24T19:11:21.220Z,5.75
2024-02-24T19:14:51.360Z,5.78
2024-02-24T19:18:18.070Z,5.84
2024-02-24T19:21:40.168Z,5.88
2024-02-24T19:25:02.370Z,5.93
2024-02-24T19:28:24.084Z,5.95
2024-02-24T19:31:45.930Z,5.94
2024-02-24T19:35:10.003Z,5.94
2024-02-24T19:38:32.026Z,5.88
2024-02-24T19:41:55.116Z,5.83
2024-02-24T19:45:19.485Z,5.73
2024-02-24T19:48:41.535Z,5.56
2024-02-24T19:52:04.937Z,5.15
2024-02-24T19:55:26.580Z,4.92
2024-02-24T19:58:54.706Z,4.67
2024-02-24T20:02:18.518Z,4.58
2024-02-24T20:05:40.712Z,4.41
2024-02-24T20:09:03.973Z,4.33
2024-02-24T20:12:25.905Z,4.22
2024-02-24T20:15:47.835Z,4.08
2024-02-24T20:19:09.697Z,3.93
2024-02-24T20:22:31.357Z,3.88
2024-02-24T20:25:54.758Z,3.89
2024-02-24T20:29:19.027Z,3.80
2024-02-24T20:32:41.018Z,3.76
2024-02-24T20:36:02.948Z,3.71
2024-02-24T20:39:24.706Z,3.63
2024-02-24T20:42:47.934Z,3.53
2024-02-24T20:46:10.433Z,3.40
2024-02-24T20:49:31.999Z,3.34
2024-02-24T20:52:54.210Z,3.26
2024-02-24T20:56:16.118Z,3.12
2024-02-24T20:59:39.461Z,2.97
2024-02-24T21:03:01.393Z,2.90
2024-02-24T21:06:24.867Z,2.80
2024-02-24T21:09:46.584Z,2.70
2024-02-24T21:13:08.499Z,2.69
2024-02-24T21:16:32.655Z,2.56
2024-02-24T21:19:55.041Z,2.52
2024-02-24T21:23:16.989Z,2.47
2024-02-24T21:26:38.640Z,2.42
2024-02-24T21:30:00.766Z,2.38
2024-02-24T21:33:24.533Z,2.28
2024-02-24T21:36:46.402Z,2.22
2024-02-24T21:40:09.889Z,2.18
2024-02-24T21:43:31.585Z,2.17
2024-02-24T21:46:53.558Z,2.10
2024-02-24T21:50:16.993Z,2.02
2024-02-24T21:53:39.219Z,1.94
2024-02-24T21:57:01.776Z,1.86
2024-02-24T22:00:26.946Z,1.70
2024-02-24T22:03:50.018Z,1.72
2024-02-24T22:07:13.479Z,1.71
2024-02-24T22:10:35.109Z,1.60
2024-02-24T22:13:56.965Z,1.56
2024-02-24T22:17:19.655Z,1.50
2024-02-24T22:20:42.460Z,1.46
2024-02-24T22:24:06.729Z,1.41
2024-02-24T22:27:29.798Z,1.33
2024-02-24T22:30:51.586Z,1.26
2024-02-24T22:34:13.872Z,1.17
2024-02-24T22:37:36.413Z,1.07
2024-02-24T22:40:59.613Z,1.02
2024-02-24T22:44:21.418Z,0.98
2024-02-24T22:47:45.980Z,0.93
2024-02-24T22:51:10.119Z,0.88
2024-02-24T22:54:31.745Z,0.88
2024-02-24T22:57:54.683Z,0.86
2024-02-24T23:01:16.740Z,0.85
2024-02-24T23:04:39.973Z,0.84
2024-02-24T23:08:02.396Z,0.84
2024-02-24T23:11:32.565Z,0.88
2024-02-24T23:14:59.320Z,0.87
2024-02-24T23:18:21.203Z,0.86
2024-02-24T23:21:43.069Z,0.80
2024-02-24T23:25:05.410Z,0.82
2024-02-24T23:28:27.020Z,0.85
2024-02-24T23:31:50.785Z,0.85
2024-02-24T23:35:13.321Z,0.91
2024-02-24T23:38:35.210Z,0.86
2024-02-24T23:41:56.952Z,0.93
2024-02-24T23:45:18.889Z,0.96
2024-02-24T23:48:47.567Z,0.90
2024-02-24T23:52:09.552Z,0.98
2024-02-24T23:55:31.242Z,0.99
2024-02-24T23:58:53.686Z,0.98
